.
WxDataArchive / Data Records for 2010-02-14
2010-02-13 February 2010 2010-02-15

Data Records for Sunday, 14 February 2010

Time	Temp	Chill	HIndex	Humid	Dewpt	 Wind 	HiWind	WindDir	Rain 	Barom 
-----	----	-----	------	-----	-----	------	------	-------	-----	----- 
00:00	24.7	24.7	24.7	75	17.9	1	4	248	0.00	29.915 
00:05	24.5	24.5	24.5	75	17.7	1	5	270	0.00	29.915 
00:10	24.4	24.4	24.4	75	17.6	1	3	248	0.00	29.915 
00:15	24.4	24.4	24.4	75	17.6	1	2	248	0.00	29.921 
00:20	24.2	24.2	24.2	75	17.4	1	3	248	0.00	29.921 
00:25	24.2	24.2	24.2	75	17.4	1	3	248	0.00	29.921 
00:30	24.1	24.1	24.1	75	17.3	1	3	248	0.00	29.924 
00:35	24.1	24.1	24.1	75	17.3	0	2	248	0.00	29.924 
00:40	23.9	23.9	23.9	75	17.2	2	3	248	0.00	29.924 
00:45	23.8	23.8	23.8	75	17.1	1	3	248	0.00	29.925 
00:50	23.8	23.8	23.8	75	17.1	1	3	248	0.00	29.925 
00:55	23.6	23.6	23.6	75	16.9	2	3	248	0.00	29.925 
01:00	23.6	23.6	23.6	75	16.9	1	5	248	0.00	29.929 
01:05	23.5	23.5	23.5	75	16.8	1	4	270	0.00	29.929 
01:10	23.5	23.5	23.5	76	17.1	1	3	248	0.00	29.929 
01:15	23.5	23.5	23.5	76	17.1	2	4	248	0.00	29.925 
01:20	23.3	23.3	23.3	76	16.9	1	4	248	0.00	29.925 
01:25	23.3	23.3	23.3	76	16.9	1	5	248	0.00	29.925 
01:30	23.3	23.3	23.3	76	16.9	1	4	270	0.00	29.926 
01:35	23.2	23.2	23.2	76	16.8	2	4	248	0.00	29.926 
01:40	23.2	23.2	23.2	76	16.8	2	4	248	0.00	29.926 
01:45	23.2	23.2	23.2	76	16.8	1	3	248	0.00	29.925 
01:50	23.2	23.2	23.2	76	16.8	1	3	248	0.00	29.925 
01:55	23.0	23.0	23.0	77	16.9	2	5	248	0.00	29.925 
02:00	23.0	23.0	23.0	77	16.9	1	3	270	0.00	29.926 
02:05	23.0	23.0	23.0	77	16.9	1	3	248	0.00	29.926 
02:10	23.0	23.0	23.0	77	16.9	2	4	270	0.00	29.926 
02:15	22.9	22.9	22.9	77	16.8	2	4	270	0.00	29.925 
02:20	22.9	22.9	22.9	77	16.8	2	3	248	0.00	29.925 
02:25	22.9	22.9	22.9	77	16.8	2	5	248	0.00	29.925 
02:30	22.9	22.9	22.9	77	16.8	1	3	248	0.00	29.925 
02:35	22.9	22.9	22.9	77	16.8	1	3	248	0.00	29.925 
02:40	22.9	22.9	22.9	77	16.8	1	5	270	0.00	29.925 
02:45	22.9	22.9	22.9	77	16.8	1	5	248	0.00	29.927 
02:50	22.9	22.9	22.9	77	16.8	1	3	248	0.00	29.927 
02:55	22.9	22.9	22.9	77	16.8	1	3	248	0.00	29.927 
03:00	22.9	22.9	22.9	76	16.5	1	4	225	0.00	29.924 
03:05	22.9	22.9	22.9	76	16.5	1	5	248	0.00	29.924 
03:10	22.9	22.9	22.9	76	16.5	1	4	248	0.00	29.924 
03:15	22.9	22.9	22.9	76	16.5	1	5	248	0.00	29.923 
03:20	22.9	22.9	22.9	76	16.5	1	4	248	0.00	29.923 
03:25	22.9	22.9	22.9	76	16.5	1	5	248	0.00	29.923 
03:30	22.9	22.9	22.9	76	16.5	1	3	248	0.00	29.915 
03:35	22.9	22.9	22.9	76	16.5	1	2	248	0.00	29.915 
03:40	22.9	22.9	22.9	76	16.5	1	3	248	0.00	29.915 
03:45	22.9	22.9	22.9	76	16.5	2	6	270	0.00	29.909 
03:50	22.9	22.9	22.9	76	16.5	1	3	270	0.00	29.909 
03:55	22.7	22.7	22.7	76	16.3	1	3	270	0.00	29.909 
04:00	22.7	22.7	22.7	76	16.3	1	3	270	0.00	29.907 
04:05	22.7	22.7	22.7	76	16.3	1	4	248	0.00	29.907 
04:10	22.7	22.7	22.7	76	16.3	1	4	248	0.00	29.907 
04:15	22.7	22.7	22.7	76	16.3	1	4	248	0.00	29.909 
04:20	22.7	22.7	22.7	76	16.3	1	3	248	0.00	29.909 
04:25	22.7	22.7	22.7	75	16.0	1	5	248	0.00	29.909 
04:30	22.7	22.7	22.7	76	16.3	1	3	248	0.00	29.910 
04:35	22.7	22.7	22.7	76	16.3	0	3	248	0.00	29.910 
04:40	22.7	22.7	22.7	76	16.3	1	3	248	0.00	29.910 
04:45	22.7	22.7	22.7	76	16.3	1	6	248	0.00	29.910 
04:50	22.7	22.7	22.7	76	16.3	1	4	225	0.00	29.910 
04:55	22.7	22.7	22.7	76	16.3	1	2	248	0.00	29.910 
05:00	22.7	22.7	22.7	76	16.3	1	2	248	0.00	29.910 
05:05	22.7	22.7	22.7	76	16.3	1	5	248	0.00	29.910 
05:10	22.7	22.7	22.7	76	16.3	1	3	248	0.00	29.910 
05:15	22.7	22.7	22.7	76	16.3	1	2	248	0.00	29.910 
05:20	22.9	22.9	22.9	75	16.2	1	5	248	0.00	29.910 
05:25	22.9	22.9	22.9	75	16.2	1	3	248	0.00	29.910 
05:30	22.9	22.9	22.9	76	16.5	0	2	248	0.00	29.909 
05:35	22.9	22.9	22.9	76	16.5	1	4	225	0.00	29.909 
05:40	22.9	22.9	22.9	76	16.5	1	4	248	0.00	29.909 
05:45	22.9	22.9	22.9	75	16.2	1	3	248	0.00	29.908 
05:50	22.9	22.9	22.9	76	16.5	1	2	248	0.00	29.908 
05:55	22.9	22.9	22.9	76	16.5	0	4	248	0.00	29.908 
06:00	22.9	22.9	22.9	75	16.2	1	3	248	0.00	29.911 
06:05	22.9	22.9	22.9	75	16.2	1	3	248	0.00	29.911 
06:10	22.9	22.9	22.9	75	16.2	0	2	248	0.00	29.911 
06:15	22.9	22.9	22.9	75	16.2	1	3	248	0.00	29.910 
06:20	22.9	22.9	22.9	75	16.2	0	2	248	0.00	29.910 
06:25	22.7	22.7	22.7	75	16.0	1	3	248	0.00	29.910 
06:30	22.7	22.7	22.7	75	16.0	0	1	248	0.00	29.910 
06:35	22.7	22.7	22.7	75	16.0	0	3	270	0.00	29.910 
06:40	22.5	22.5	22.5	75	15.8	0	2	270	0.00	29.910 
06:45	22.5	22.5	22.5	75	15.8	1	2	248	0.00	29.911 
06:50	22.5	22.5	22.5	75	15.8	1	4	248	0.00	29.911 
06:55	22.5	22.5	22.5	75	15.8	0	3	248	0.00	29.911 
07:00	22.4	22.4	22.4	75	15.7	1	3	248	0.00	29.914 
07:05	22.4	22.4	22.4	75	15.7	0	2	248	0.00	29.914 
07:10	22.4	22.4	22.4	75	15.7	1	2	248	0.00	29.914 
07:15	22.5	22.5	22.5	75	15.8	1	3	248	0.00	29.915 
07:20	22.5	22.5	22.5	75	15.8	1	4	248	0.00	29.915 
07:25	22.5	22.5	22.5	74	15.5	1	3	248	0.00	29.915 
07:30	22.5	22.5	22.5	74	15.5	1	4	248	0.00	29.916 
07:35	22.5	22.5	22.5	74	15.5	1	2	248	0.00	29.916 
07:40	22.5	22.5	22.5	74	15.5	0	3	248	0.00	29.916 
07:45	22.4	22.4	22.4	73	15.1	1	3	248	0.00	29.924 
07:50	22.1	22.1	22.1	73	14.8	1	4	248	0.00	29.924 
07:55	21.9	21.9	21.9	73	14.6	1	4	248	0.00	29.924 
08:00	21.8	21.8	21.8	73	14.5	1	3	248	0.00	29.926 
08:05	21.6	21.6	21.6	73	14.3	1	4	248	0.00	29.926 
08:10	21.6	21.6	21.6	73	14.3	1	4	248	0.00	29.926 
08:15	21.4	21.4	21.4	73	14.1	1	4	248	0.00	29.929 
08:20	21.4	21.4	21.4	72	13.8	1	6	248	0.00	29.929 
08:25	21.3	21.3	21.3	72	13.7	0	2	248	0.00	29.929 
08:30	21.4	21.4	21.4	72	13.8	0	3	248	0.00	29.929 
08:35	21.4	21.4	21.4	72	13.8	1	3	248	0.00	29.929 
08:40	21.6	21.6	21.6	70	13.4	2	4	248	0.00	29.929 
08:45	21.6	21.6	21.6	70	13.4	1	3	248	0.00	29.921 
08:50	21.9	21.9	21.9	69	13.3	1	4	248	0.00	29.921 
08:55	21.8	21.8	21.8	69	13.2	2	5	248	0.00	29.921 
09:00	21.8	21.8	21.8	69	13.2	1	4	248	0.00	29.924 
09:05	21.8	21.8	21.8	68	12.9	1	3	270	0.00	29.924 
09:10	22.1	22.1	22.1	67	12.8	1	3	270	0.00	29.924 
09:15	22.4	22.4	22.4	66	12.8	1	3	248	0.00	29.925 
09:20	22.7	22.7	22.7	64	12.4	1	4	248	0.00	29.925 
09:25	22.9	22.9	22.9	64	12.6	1	3	248	0.00	29.925 
09:30	23.0	23.0	23.0	63	12.3	1	4	248	0.00	29.924 
09:35	23.3	23.3	23.3	62	12.2	1	2	248	0.00	29.924 
09:40	23.5	23.5	23.5	62	12.4	1	4	248	0.00	29.924 
09:45	23.8	23.8	23.8	61	12.3	2	5	248	0.00	29.918 
09:50	23.9	23.9	23.9	59	11.7	2	7	248	0.00	29.918 
09:55	24.1	24.1	24.1	59	11.9	2	4	248	0.00	29.918 
10:00	24.4	24.4	24.4	59	12.2	1	4	248	0.00	29.911 
10:05	24.7	24.7	24.7	58	12.1	1	3	248	0.00	29.911 
10:10	25.1	25.1	25.1	58	12.4	1	3	248	0.00	29.911 
10:15	25.3	25.3	25.3	56	11.8	2	6	248	0.00	29.911 
10:20	25.1	25.1	25.1	56	11.6	2	5	248	0.00	29.911 
10:25	25.0	25.0	25.0	56	11.5	2	6	292	0.00	29.911 
10:30	25.0	25.0	25.0	56	11.5	2	5	248	0.00	29.915 
10:35	25.1	25.1	25.1	56	11.6	2	4	248	0.00	29.915 
10:40	25.3	25.3	25.3	55	11.4	2	5	248	0.00	29.915 
10:45	25.6	25.6	25.6	55	11.7	1	4	248	0.00	29.915 
10:50	25.8	25.8	25.8	54	11.5	1	3	248	0.00	29.915 
10:55	25.8	25.8	25.8	54	11.5	2	5	248	0.00	29.915 
11:00	26.1	26.1	26.1	53	11.3	2	6	248	0.00	29.913 
11:05	26.4	26.4	26.4	54	12.0	1	4	248	0.00	29.913 
11:10	26.7	26.7	26.7	53	11.9	2	6	248	0.00	29.913 
11:15	27.0	27.0	27.0	53	12.2	1	4	270	0.00	29.909 
11:20	27.5	27.5	27.5	53	12.6	1	4	248	0.00	29.909 
11:25	27.8	27.8	27.8	51	12.1	1	4	248	0.00	29.909 
11:30	28.1	28.1	28.1	51	12.3	1	4	270	0.00	29.909 
11:35	28.2	28.2	28.2	50	12.0	1	3	248	0.00	29.909 
11:40	28.5	28.5	28.5	49	11.8	1	4	270	0.00	29.909 
11:45	29.0	29.0	29.0	49	12.3	1	3	270	0.00	29.905 
11:50	29.3	29.3	29.3	49	12.5	1	6	315	0.00	29.905 
11:55	29.3	29.3	29.3	47	11.6	2	4	248	0.00	29.905 
12:00	29.4	29.4	29.4	47	11.7	1	5	248	0.00	29.901 
12:05	29.3	29.3	29.3	46	11.1	2	7	248	0.00	29.901 
12:10	29.3	29.3	29.3	46	11.1	2	4	270	0.00	29.901 
12:15	29.3	29.3	29.3	46	11.1	2	5	270	0.00	29.898 
12:20	29.1	29.1	29.1	46	10.9	2	5	270	0.00	29.898 
12:25	29.1	29.1	29.1	46	10.9	2	6	270	0.00	29.898 
12:30	29.3	29.3	29.3	47	11.6	1	3	270	0.00	29.894 
12:35	29.5	29.5	29.5	47	11.8	2	4	248	0.00	29.894 
12:40	29.1	24.7	29.1	45	10.4	4	10	270	0.00	29.894 
12:45	29.0	29.0	29.0	46	10.8	3	7	248	0.00	29.889 
12:50	29.1	29.1	29.1	45	10.4	3	9	270	0.00	29.889 
12:55	29.0	24.6	29.0	45	10.4	4	9	248	0.00	29.889 
13:00	29.0	29.0	29.0	45	10.4	3	9	270	0.00	29.884 
13:05	29.1	24.7	29.1	45	10.4	4	9	248	0.00	29.884 
13:10	29.0	29.0	29.0	45	10.4	3	6	270	0.00	29.884 
13:15	29.0	29.0	29.0	45	10.4	3	7	270	0.00	29.885 
13:20	29.0	29.0	29.0	45	10.4	3	9	270	0.00	29.885 
13:25	29.1	29.1	29.1	46	10.9	3	9	248	0.00	29.885 
13:30	29.1	29.1	29.1	45	10.4	3	9	248	0.00	29.881 
13:35	29.1	29.1	29.1	47	11.4	3	7	248	0.00	29.881 
13:40	29.4	29.4	29.4	46	11.2	3	6	270	0.00	29.881 
13:45	29.3	25.0	29.3	45	10.6	4	7	270	0.00	29.877 
13:50	29.4	29.4	29.4	46	11.2	2	5	248	0.00	29.877 
13:55	29.7	29.7	29.7	45	11.0	2	7	270	0.00	29.877 
14:00	29.8	29.8	29.8	45	11.1	2	5	270	0.00	29.875 
14:05	29.7	29.7	29.7	46	11.5	2	4	270	0.00	29.875 
14:10	29.4	29.4	29.4	45	10.7	3	5	270	0.00	29.875 
14:15	29.3	29.3	29.3	45	10.6	3	9	270	0.00	29.870 
14:20	29.3	29.3	29.3	46	11.1	3	7	270	0.00	29.870 
14:25	29.1	24.7	29.1	45	10.4	4	8	270	0.00	29.870 
14:30	29.1	29.1	29.1	47	11.4	3	9	270	0.00	29.863 
14:35	29.4	29.4	29.4	46	11.2	3	7	270	0.00	29.863 
14:40	29.3	25.0	29.3	47	11.6	4	9	248	0.00	29.863 
14:45	29.3	29.3	29.3	47	11.6	3	9	248	0.00	29.862 
14:50	29.4	29.4	29.4	48	12.2	2	5	270	0.00	29.862 
14:55	29.4	29.4	29.4	47	11.7	2	5	248	0.00	29.862 
15:00	29.4	29.4	29.4	49	12.6	2	4	270	0.00	29.860 
15:05	29.4	29.4	29.4	49	12.6	2	6	248	0.00	29.860 
15:10	29.4	29.4	29.4	49	12.6	2	5	270	0.00	29.860 
15:15	29.7	29.7	29.7	50	13.4	2	7	270	0.00	29.857 
15:20	29.8	29.8	29.8	49	13.0	2	4	248	0.00	29.857 
15:25	30.1	30.1	30.1	46	11.8	2	10	248	0.00	29.857 
15:30	30.1	30.1	30.1	46	11.8	3	10	248	0.00	29.856 
15:35	30.1	30.1	30.1	45	11.4	2	10	248	0.00	29.856 
15:40	30.1	30.1	30.1	45	11.4	2	6	248	0.00	29.856 
15:45	29.8	29.8	29.8	45	11.1	2	5	270	0.00	29.860 
15:50	29.8	29.8	29.8	45	11.1	2	5	248	0.00	29.860 
15:55	29.7	29.7	29.7	44	10.5	2	4	248	0.00	29.860 
16:00	29.4	29.4	29.4	46	11.2	2	5	292	0.00	29.861 
16:05	29.5	29.5	29.5	46	11.3	2	6	248	0.00	29.861 
16:10	29.3	29.3	29.3	45	10.6	2	4	270	0.00	29.861 
16:15	29.1	29.1	29.1	45	10.4	2	6	270	0.00	29.861 
16:20	29.1	29.1	29.1	45	10.4	3	9	270	0.00	29.861 
16:25	29.1	29.1	29.1	46	10.9	2	4	248	0.00	29.861 
16:30	29.1	29.1	29.1	46	10.9	2	7	248	0.00	29.860 
16:35	29.0	29.0	29.0	46	10.8	3	7	248	0.00	29.860 
16:40	29.0	29.0	29.0	46	10.8	3	6	270	0.00	29.860 
16:45	28.7	28.7	28.7	46	10.6	3	5	248	0.00	29.860 
16:50	28.7	28.7	28.7	47	11.0	2	6	248	0.00	29.860 
16:55	28.7	28.7	28.7	45	10.1	3	9	248	0.00	29.860 
17:00	28.5	28.5	28.5	45	9.9	2	6	248	0.00	29.859 
17:05	28.5	28.5	28.5	45	9.9	3	6	270	0.00	29.859 
17:10	28.4	28.4	28.4	45	9.8	2	5	248	0.00	29.859 
17:15	28.4	28.4	28.4	46	10.3	1	3	248	0.00	29.864 
17:20	28.2	28.2	28.2	46	10.1	2	5	248	0.00	29.864 
17:25	28.1	28.1	28.1	46	10.0	2	4	270	0.00	29.864 
17:30	27.9	27.9	27.9	47	10.3	2	4	248	0.00	29.864 
17:35	27.8	27.8	27.8	47	10.2	1	4	248	0.00	29.864 
17:40	27.6	27.6	27.6	48	10.5	1	3	248	0.00	29.864 
17:45	27.3	27.3	27.3	48	10.2	1	5	248	0.00	29.866 
17:50	27.2	27.2	27.2	49	10.6	2	7	248	0.00	29.866 
17:55	26.9	26.9	26.9	49	10.3	2	6	248	0.00	29.866 
18:00	26.6	26.6	26.6	49	10.0	2	7	248	0.00	29.865 
18:05	26.4	26.4	26.4	50	10.3	2	5	248	0.00	29.865 
18:10	26.1	26.1	26.1	50	10.0	1	5	248	0.00	29.865 
18:15	26.0	26.0	26.0	51	10.4	2	5	248	0.00	29.867 
18:20	25.8	25.8	25.8	51	10.2	2	5	248	0.00	29.867 
18:25	25.7	25.7	25.7	51	10.1	1	6	248	0.00	29.867 
18:30	25.6	25.6	25.6	52	10.4	0	2	248	0.00	29.867 
18:35	25.4	25.4	25.4	53	10.7	1	3	248	0.00	29.867 
18:40	25.3	25.3	25.3	53	10.6	0	2	248	0.00	29.867 
18:45	25.0	25.0	25.0	54	10.7	0	2	248	0.00	29.868 
18:50	25.0	25.0	25.0	54	10.7	1	4	248	0.00	29.868 
18:55	24.8	24.8	24.8	54	10.5	1	3	248	0.00	29.868 
19:00	24.7	24.7	24.7	55	10.9	1	3	248	0.00	29.868 
19:05	24.7	24.7	24.7	55	10.9	0	3	248	0.00	29.868 
19:10	24.5	24.5	24.5	56	11.1	1	4	248	0.00	29.868 
19:15	24.4	24.4	24.4	56	11.0	1	3	248	0.00	29.869 
19:20	24.4	24.4	24.4	56	11.0	0	3	248	0.00	29.869 
19:25	24.2	24.2	24.2	57	11.2	0	3	248	0.00	29.869 
19:30	24.1	24.1	24.1	57	11.1	1	3	248	0.00	29.871 
19:35	24.1	24.1	24.1	57	11.1	1	3	248	0.00	29.871 
19:40	23.9	23.9	23.9	57	10.9	0	2	248	0.00	29.871 
19:45	23.9	23.9	23.9	57	10.9	1	3	248	0.00	29.873 
19:50	23.8	23.8	23.8	58	11.2	0	2	248	0.00	29.873 
19:55	23.6	23.6	23.6	58	11.0	0	3	248	0.00	29.873 
20:00	23.5	23.5	23.5	58	10.9	0	2	248	0.00	29.876 
20:05	23.5	23.5	23.5	58	10.9	0	2	248	0.00	29.876 
20:10	23.2	23.2	23.2	58	10.6	0	2	248	0.00	29.876 
20:15	23.2	23.2	23.2	58	10.6	0	2	248	0.00	29.877 
20:20	23.0	23.0	23.0	58	10.5	0	2	248	0.00	29.877 
20:25	22.9	22.9	22.9	58	10.4	0	3	248	0.00	29.877 
20:30	22.9	22.9	22.9	58	10.4	0	2	248	0.00	29.875 
20:35	22.7	22.7	22.7	59	10.6	0	1	248	0.00	29.875 
20:40	22.4	22.4	22.4	59	10.3	0	0	---	0.00	29.875 
20:45	22.1	22.1	22.1	59	10.0	0	0	---	0.00	29.878 
20:50	21.6	21.6	21.6	60	9.9	0	0	---	0.00	29.878 
20:55	21.3	21.3	21.3	61	10.0	0	0	---	0.00	29.878 
21:00	21.0	21.0	21.0	62	10.1	0	0	---	0.00	29.884 
21:05	20.6	20.6	20.6	62	9.7	0	0	---	0.00	29.884 
21:10	20.2	20.2	20.2	63	9.7	0	0	---	0.00	29.884 
21:15	19.5	19.5	19.5	63	9.0	0	0	---	0.00	29.885 
21:20	19.1	19.1	19.1	64	9.0	0	0	---	0.00	29.885 
21:25	18.6	18.6	18.6	65	8.8	0	0	---	0.00	29.885 
21:30	18.1	18.1	18.1	65	8.3	0	0	---	0.00	29.887 
21:35	17.8	17.8	17.8	67	8.7	0	0	---	0.00	29.887 
21:40	17.3	17.3	17.3	68	8.6	0	0	---	0.00	29.887 
21:45	17.2	17.2	17.2	69	8.8	0	0	---	0.00	29.889 
21:50	16.9	16.9	16.9	70	8.8	0	0	---	0.00	29.889 
21:55	16.5	16.5	16.5	71	8.8	0	0	---	0.00	29.889 
22:00	16.2	16.2	16.2	72	8.8	0	0	---	0.00	29.888 
22:05	16.1	16.1	16.1	72	8.7	0	0	---	0.00	29.888 
22:10	15.9	15.9	15.9	73	8.8	0	0	---	0.00	29.888 
22:15	15.7	15.7	15.7	74	8.9	0	0	---	0.00	29.878 
22:20	15.4	15.4	15.4	74	8.6	0	0	---	0.00	29.878 
22:25	15.1	15.1	15.1	75	8.6	0	0	---	0.00	29.878 
22:30	14.9	14.9	14.9	76	8.7	0	0	---	0.00	29.873 
22:35	14.8	14.8	14.8	77	8.9	0	0	---	0.00	29.873 
22:40	14.8	14.8	14.8	77	8.9	0	0	---	0.00	29.873 
22:45	14.8	14.8	14.8	78	9.2	0	0	---	0.00	29.867 
22:50	14.6	14.6	14.6	78	9.0	0	0	---	0.00	29.867 
22:55	14.4	14.4	14.4	78	8.8	0	0	---	0.00	29.867 
23:00	14.3	14.3	14.3	79	9.0	0	0	---	0.00	29.865 
23:05	14.1	14.1	14.1	79	8.8	0	0	---	0.00	29.865 
23:10	14.0	14.0	14.0	79	8.7	0	0	---	0.00	29.865 
23:15	13.6	13.6	13.6	79	8.3	0	0	---	0.00	29.867 
23:20	13.5	13.5	13.5	79	8.2	0	0	---	0.00	29.867 
23:25	13.1	13.1	13.1	79	7.8	0	0	---	0.00	29.867 
23:30	12.9	12.9	12.9	80	7.9	0	0	---	0.00	29.870 
23:35	12.6	12.6	12.6	80	7.6	0	0	---	0.00	29.870 
23:40	12.6	12.6	12.6	81	7.9	0	0	---	0.00	29.870 
23:45	12.3	12.3	12.3	81	7.6	0	0	---	0.00	29.869 
23:50	12.1	12.1	12.1	81	7.4	0	0	---	0.00	29.869 
23:55	11.9	11.9	11.9	81	7.2	0	0	---	0.00	29.869 

CoCoRaHS
IN-AL-39
A2 Web Hosting
Creative Commons License
GoDaddy
search engine by freefind advanced

loaded 2018-11-15 16:46:58 • last modified 2010-11-18 10:43:29
Privacy PolicyDisclaimer
• wx.awcolley.com is powered by PmWiki v.2002016 •
• all content (unless otherwise noted) © 2018 A W Colley